Time;durP1;ratioP1;P1;durP2;ratioP2;P2;SDS_P1;SDS_P2;PMS_P1;PMS_P2;Temp;Humidity;BMP_temperature;BMP_pressure;BME280_temperature;BME280_humidity;BME280_pressure;Samples;Min_cycle;Max_cycle;Signal;HPM_P1;HPM_P2
2022/06/22 00:00:32;;;;;;;;;;;;;;;21.00;71.42;95954.88;5096677;28;19952;-71
2022/06/22 00:02:58;;;;;;;;;;;;;;;20.96;71.28;95956.56;5095995;28;19955;-71
2022/06/22 00:05:37;;;;;;;;;;;;;;;20.93;71.38;95943.81;5095860;28;19951;-71
2022/06/22 00:08:05;;;;;;;;;;;;;;;20.88;71.22;95942.03;5095378;28;20032;-71
2022/06/22 00:10:33;;;;;;;;;;;;;;;20.86;71.48;95936.22;5096138;28;19954;-71
2022/06/22 00:13:00;;;;;;;;;;;;;;;20.82;71.70;95926.44;5095787;28;20328;-71
2022/06/22 00:15:34;;;;;;;;;;;;;;;20.77;71.40;95924.69;5095985;28;20349;-71
2022/06/22 00:18:02;;;;;;;;;;;;;;;20.74;72.05;95917.25;5095939;28;19960;-71
2022/06/22 00:20:30;;;;;;;;;;;;;;;20.70;71.83;95908.28;5095795;28;19970;-71
2022/06/22 00:22:57;;;;;;;;;;;;;;;20.66;72.51;95905.44;5095488;28;19959;-71
2022/06/22 00:25:36;;;;;;;;;;;;;;;20.63;72.06;95905.22;5095354;28;19975;-71
2022/06/22 00:28:21;;;;;;;;;;;;;;;20.59;72.28;95907.69;5095335;28;19951;-71
2022/06/22 00:30:47;;;;;;;;;;;;;;;20.57;71.57;95903.72;5095551;28;19950;-71
2022/06/22 00:33:16;;;;;;;;;;;;;;;20.55;72.06;95897.88;5095301;28;20012;-71
2022/06/22 00:35:43;;;;;;;;;;;;;;;20.54;72.57;95898.97;5095214;28;19955;-71
2022/06/22 00:38:12;;;;;;;;;;;;;;;20.52;72.65;95907.25;5095372;28;20319;-71
2022/06/22 00:40:38;;;;;;;;;;;;;;;20.51;72.74;95912.88;5095140;28;19955;-71
2022/06/22 00:43:04;;;;;;;;;;;;;;;20.50;72.71;95917.41;5094637;28;19965;-71
2022/06/22 00:45:31;;;;;;;;;;;;;;;20.50;72.90;95919.28;5095272;28;19966;-71
2022/06/22 00:48:01;;;;;;;;;;;;;;;20.48;73.09;95920.38;5095068;28;19958;-71
2022/06/22 00:50:37;;;;;;;;;;;;;;;20.48;73.39;95919.59;5095105;28;20318;-71
2022/06/22 00:53:06;;;;;;;;;;;;;;;20.46;73.14;95917.22;5094910;28;19951;-71
2022/06/22 00:55:34;;;;;;;;;;;;;;;20.46;73.28;95921.75;5093228;28;19964;-71
2022/06/22 00:58:15;;;;;;;;;;;;;;;20.46;73.41;95932.41;5094886;28;19951;-71
2022/06/22 01:00:43;;;;;;;;;;;;;;;20.44;73.58;95926.59;5094695;28;19958;-71
2022/06/22 01:03:17;;;;;;;;;;;;;;;20.44;73.70;95930.03;5094814;28;19961;-71
2022/06/22 01:05:58;;;;;;;;;;;;;;;20.44;73.56;95921.25;5094710;28;19967;-71
2022/06/22 01:08:24;;;;;;;;;;;;;;;20.44;74.00;95918.59;5094591;28;20348;-71
2022/06/22 01:11:02;;;;;;;;;;;;;;;20.42;73.70;95905.56;5093918;28;19954;-71
2022/06/22 01:13:33;;;;;;;;;;;;;;;20.43;74.17;95920.47;5094517;28;19957;-71
2022/06/22 01:16:03;;;;;;;;;;;;;;;20.41;74.12;95925.31;5095016;28;19973;-71
2022/06/22 01:18:31;;;;;;;;;;;;;;;20.41;73.82;95933.28;5094566;28;19966;-71
2022/06/22 01:21:17;;;;;;;;;;;;;;;20.40;74.30;95930.91;5081531;28;20317;-71
2022/06/22 01:23:43;;;;;;;;;;;;;;;20.38;74.87;95936.53;5093891;28;20430;-71
2022/06/22 01:26:18;;;;;;;;;;;;;;;20.38;74.78;95949.84;5094309;28;19960;-71
2022/06/22 01:28:54;;;;;;;;;;;;;;;20.38;74.92;95960.50;5094405;28;19959;-71
2022/06/22 01:31:21;;;;;;;;;;;;;;;20.38;76.08;95979.13;5094408;28;19982;-71
2022/06/22 01:33:48;;;;;;;;;;;;;;;20.37;75.97;95988.22;5094245;28;19956;-71
2022/06/22 01:36:14;;;;;;;;;;;;;;;20.35;75.98;95982.38;5094098;28;19958;-71
2022/06/22 01:38:40;;;;;;;;;;;;;;;20.33;77.17;95979.22;5094049;28;20409;-70
2022/06/22 01:41:21;;;;;;;;;;;;;;;20.30;81.16;95947.06;5094172;28;20431;-71
2022/06/22 01:43:54;;;;;;;;;;;;;;;20.10;81.43;95895.75;5093214;28;20437;-71
2022/06/22 01:46:56;;;;;;;;;;;;;;;19.94;80.02;95865.13;5093911;28;19961;-71
2022/06/22 01:49:29;;;;;;;;;;;;;;;19.88;81.64;95883.03;5031748;28;19961;-71
2022/06/22 01:52:01;;;;;;;;;;;;;;;19.89;84.77;95902.50;5084292;28;20356;-71
2022/06/22 01:54:34;;;;;;;;;;;;;;;19.88;83.30;95930.94;5093611;28;19958;-72
2022/06/22 01:57:06;;;;;;;;;;;;;;;19.87;84.31;95921.41;5085631;28;19957;-71
2022/06/22 01:59:38;;;;;;;;;;;;;;;19.84;83.22;95921.97;5093956;28;19953;-72
2022/06/22 02:02:08;;;;;;;;;;;;;;;19.86;82.54;95922.47;5094058;28;19956;-72
2022/06/22 02:04:38;;;;;;;;;;;;;;;19.85;81.04;95904.94;5093875;28;19967;-72
2022/06/22 02:09:56;;;;;;;;;;;;;;;19.80;82.87;95907.66;5093581;28;19954;-72
2022/06/22 02:12:28;;;;;;;;;;;;;;;19.77;82.65;95895.72;5092832;28;19959;-72
2022/06/22 02:15:04;;;;;;;;;;;;;;;19.80;82.26;95912.97;5093581;28;19982;-72
2022/06/22 02:17:33;;;;;;;;;;;;;;;19.83;81.60;95907.09;5078404;28;19962;-72
2022/06/22 02:20:17;;;;;;;;;;;;;;;19.86;82.72;95917.13;5092346;28;19988;-72
2022/06/22 02:22:44;;;;;;;;;;;;;;;19.85;82.94;95920.91;5099725;28;19972;-72
2022/06/22 02:25:11;;;;;;;;;;;;;;;19.84;83.04;95933.41;5100311;28;19981;-72
2022/06/22 02:27:37;;;;;;;;;;;;;;;19.83;81.84;95931.81;5100361;28;19965;-72
2022/06/22 02:30:03;;;;;;;;;;;;;;;19.83;82.23;95931.03;5100359;28;19960;-72
2022/06/22 02:32:32;;;;;;;;;;;;;;;19.81;81.84;95933.97;5100412;28;19975;-72
2022/06/22 02:34:58;;;;;;;;;;;;;;;19.80;81.52;95942.25;5100344;28;19964;-72
2022/06/22 02:37:26;;;;;;;;;;;;;;;19.79;82.32;95952.09;5100177;28;19956;-72
2022/06/22 02:39:53;;;;;;;;;;;;;;;19.78;81.63;95958.50;5100239;28;19968;-72
2022/06/22 02:45:06;;;;;;;;;;;;;;;19.69;81.67;95930.94;5087282;28;19977;-72
2022/06/22 02:47:52;;;;;;;;;;;;;;;19.66;82.24;95927.00;5100250;28;19962;-72
2022/06/22 02:50:31;;;;;;;;;;;;;;;19.68;82.67;95932.03;5099781;28;20324;-72
2022/06/22 02:52:59;;;;;;;;;;;;;;;19.66;82.35;95921.66;5100163;28;19966;-73
2022/06/22 02:55:27;;;;;;;;;;;;;;;19.67;82.59;95911.81;5100331;28;19955;-72
2022/06/22 02:57:53;;;;;;;;;;;;;;;19.65;82.70;95919.28;5099882;28;19960;-71
2022/06/22 03:00:21;;;;;;;;;;;;;;;19.62;82.98;95910.03;5099966;28;19955;-72
2022/06/22 03:02:49;;;;;;;;;;;;;;;19.59;82.33;95901.81;5100154;28;19953;-72
2022/06/22 03:05:16;;;;;;;;;;;;;;;19.57;82.42;95896.81;5099785;28;20450;-72
2022/06/22 03:07:43;;;;;;;;;;;;;;;19.56;81.59;95892.56;5100162;28;19948;-72
2022/06/22 03:10:35;;;;;;;;;;;;;;;19.54;82.82;95894.72;5099845;28;19958;-72
2022/06/22 03:13:15;;;;;;;;;;;;;;;19.47;83.24;95904.94;5099658;28;19960;-72
2022/06/22 03:15:42;;;;;;;;;;;;;;;19.43;82.97;95902.06;5098650;28;19984;-72
2022/06/22 03:18:11;;;;;;;;;;;;;;;19.42;82.94;95916.44;5099862;28;19955;-72
2022/06/22 03:20:45;;;;;;;;;;;;;;;19.40;83.08;95917.78;5099724;28;19964;-72
2022/06/22 03:23:23;;;;;;;;;;;;;;;19.39;82.79;95926.84;5100215;28;19964;-72
2022/06/22 03:26:08;;;;;;;;;;;;;;;19.39;83.15;95924.19;5099588;28;20317;-72
2022/06/22 03:28:36;;;;;;;;;;;;;;;19.40;83.80;95915.13;5098639;28;19957;-72
2022/06/22 03:31:08;;;;;;;;;;;;;;;19.39;84.60;95911.69;5100017;28;19955;-72
2022/06/22 03:33:40;;;;;;;;;;;;;;;19.39;84.55;95919.66;5080823;28;19962;-72
2022/06/22 03:36:11;;;;;;;;;;;;;;;19.39;84.20;95911.69;5096648;28;20433;-73
2022/06/22 03:38:39;;;;;;;;;;;;;;;19.40;84.05;95917.78;5096590;28;19960;-72
2022/06/22 03:41:09;;;;;;;;;;;;;;;19.40;83.79;95913.28;5096291;28;19957;-72
2022/06/22 03:43:39;;;;;;;;;;;;;;;19.40;83.24;95913.28;5096611;28;20424;-72
2022/06/22 03:46:11;;;;;;;;;;;;;;;19.40;83.62;95910.63;5095568;28;19974;-72
2022/06/22 03:48:46;;;;;;;;;;;;;;;19.41;83.60;95903.41;5096316;28;19963;-72
2022/06/22 03:51:15;;;;;;;;;;;;;;;19.41;83.70;95912.19;5096387;28;19961;-72
2022/06/22 03:53:43;;;;;;;;;;;;;;;19.42;83.30;95912.97;5096407;28;19961;-72
2022/06/22 03:56:12;;;;;;;;;;;;;;;19.42;83.78;95913.78;5095944;28;20325;-72
2022/06/22 03:58:39;;;;;;;;;;;;;;;19.44;84.22;95910.81;5096104;28;19961;-72
2022/06/22 04:01:05;;;;;;;;;;;;;;;19.45;84.66;95912.41;5096190;28;19957;-72
2022/06/22 04:03:31;;;;;;;;;;;;;;;19.46;85.23;95914.78;5095828;28;20463;-72
2022/06/22 04:05:58;;;;;;;;;;;;;;;19.48;85.30;95909.16;5096128;28;19969;-72
2022/06/22 04:08:26;;;;;;;;;;;;;;;19.48;84.55;95909.16;5095958;28;19954;-72
2022/06/22 04:10:58;;;;;;;;;;;;;;;19.50;84.98;95903.56;5095922;28;19957;-72
2022/06/22 04:13:31;;;;;;;;;;;;;;;19.52;85.13;95909.38;5095876;28;20303;-72
2022/06/22 04:16:02;;;;;;;;;;;;;;;19.51;85.65;95913.91;5095995;28;19964;-72
2022/06/22 04:18:34;;;;;;;;;;;;;;;19.52;85.14;95920.03;5096192;28;19962;-72
2022/06/22 04:21:03;;;;;;;;;;;;;;;19.52;85.58;95920.03;5095525;28;19954;-72
2022/06/22 04:23:31;;;;;;;;;;;;;;;19.52;85.97;95925.34;5095661;28;19958;-72
2022/06/22 04:26:11;;;;;;;;;;;;;;;19.51;85.76;95913.91;5095858;28;20330;-72
2022/06/22 04:28:39;;;;;;;;;;;;;;;19.50;86.48;95925.63;5095470;28;19976;-72
2022/06/22 04:31:07;;;;;;;;;;;;;;;19.50;86.21;95928.28;5095586;28;20052;-72
2022/06/22 04:33:41;;;;;;;;;;;;;;;19.50;86.75;95930.94;5095891;28;19960;-72
2022/06/22 04:36:14;;;;;;;;;;;;;;;19.48;86.49;95933.88;5095408;28;19962;-72
2022/06/22 04:38:47;;;;;;;;;;;;;;;19.48;86.62;95927.78;5095705;28;19958;-72
2022/06/22 04:41:24;;;;;;;;;;;;;;;19.48;86.68;95935.75;5095299;28;19961;-72
2022/06/22 04:43:51;;;;;;;;;;;;;;;19.50;86.17;95930.16;5095412;28;19962;-72
2022/06/22 04:46:22;;;;;;;;;;;;;;;19.50;86.68;95933.59;5093250;28;20434;-72
2022/06/22 04:48:49;;;;;;;;;;;;;;;19.52;86.80;95930.66;5095675;28;19959;-72
2022/06/22 04:51:20;;;;;;;;;;;;;;;19.54;86.54;95923.97;5094964;28;19966;-72
2022/06/22 04:53:50;;;;;;;;;;;;;;;19.56;86.64;95932.44;5079555;28;19953;-72
2022/06/22 04:56:22;;;;;;;;;;;;;;;19.57;86.69;95920.75;5095217;28;19957;-72
2022/06/22 04:58:52;;;;;;;;;;;;;;;19.61;87.53;95923.59;5094846;28;20315;-72
2022/06/22 05:01:24;;;;;;;;;;;;;;;19.65;86.78;95919.28;5094847;28;19969;-72
2022/06/22 05:03:52;;;;;;;;;;;;;;;19.70;87.02;95927.25;5094729;28;19964;-72
2022/06/22 05:06:22;;;;;;;;;;;;;;;19.77;86.70;95925.00;5094881;28;20423;-72
2022/06/22 05:08:53;;;;;;;;;;;;;;;19.81;86.47;95935.84;5094194;28;19952;-72
2022/06/22 05:11:23;;;;;;;;;;;;;;;19.85;86.57;95934.97;5094881;28;19965;-72
2022/06/22 05:13:50;;;;;;;;;;;;;;;19.89;85.25;95943.19;5094535;28;19956;-72
2022/06/22 05:16:19;;;;;;;;;;;;;;;19.90;85.83;95952.75;5094721;28;19966;-73
2022/06/22 05:18:46;;;;;;;;;;;;;;;19.92;85.86;95963.88;5094583;28;19978;-72
2022/06/22 05:21:12;;;;;;;;;;;;;;;19.92;85.19;95963.88;5094723;28;20401;-72
2022/06/22 05:23:40;;;;;;;;;;;;;;;19.93;85.48;95976.13;5094763;28;19990;-72
2022/06/22 05:26:08;;;;;;;;;;;;;;;19.92;86.56;95987.84;5094223;28;19969;-72
2022/06/22 05:28:41;;;;;;;;;;;;;;;19.93;87.04;95988.63;5094473;28;19963;-72
2022/06/22 05:31:10;;;;;;;;;;;;;;;19.90;87.17;95992.66;5094424;28;19961;-72
2022/06/22 05:33:38;;;;;;;;;;;;;;;19.89;87.41;95993.75;5093018;28;20425;-72
2022/06/22 05:36:06;;;;;;;;;;;;;;;19.89;88.94;96000.94;5094399;28;19962;-72
2022/06/22 05:38:36;;;;;;;;;;;;;;;19.87;87.90;95998.56;5094179;28;19968;-72
2022/06/22 05:41:04;;;;;;;;;;;;;;;19.86;88.26;96011.09;5094119;28;19958;-73
2022/06/22 05:43:32;;;;;;;;;;;;;;;19.88;87.93;96002.78;5094417;28;19964;-72
2022/06/22 05:46:02;;;;;;;;;;;;;;;19.87;85.13;95998.56;5093916;28;20341;-72
2022/06/22 05:48:30;;;;;;;;;;;;;;;19.82;89.02;95999.44;5094540;28;19957;-72
2022/06/22 05:50:58;;;;;;;;;;;;;;;19.81;89.13;96008.47;5094113;28;19963;-72
2022/06/22 05:53:32;;;;;;;;;;;;;;;19.77;87.27;96004.81;5094021;28;19953;-72
2022/06/22 05:55:58;;;;;;;;;;;;;;;19.75;88.01;96006.19;5093596;28;19968;-72
2022/06/22 05:58:49;;;;;;;;;;;;;;;19.69;87.42;95997.44;5094016;28;19984;-72
2022/06/22 06:01:35;;;;;;;;;;;;;;;19.68;86.17;96014.50;5093740;28;19966;-72
2022/06/22 06:04:15;;;;;;;;;;;;;;;19.68;88.25;96012.63;5093391;28;19957;-72
2022/06/22 06:06:44;;;;;;;;;;;;;;;19.67;86.62;96005.72;5093657;28;20336;-72
2022/06/22 06:09:16;;;;;;;;;;;;;;;19.65;86.50;96012.38;5094003;28;19964;-72
2022/06/22 06:11:48;;;;;;;;;;;;;;;19.64;88.38;96021.47;5093499;28;19953;-71
2022/06/22 06:14:24;;;;;;;;;;;;;;;19.60;88.90;96029.22;5093451;28;19992;-70
2022/06/22 06:16:52;;;;;;;;;;;;;;;19.58;87.63;96026.03;5093682;28;19958;-71
2022/06/22 06:19:20;;;;;;;;;;;;;;;19.58;88.03;96026.03;5093616;28;19963;-71
2022/06/22 06:21:48;;;;;;;;;;;;;;;19.59;88.54;96024.97;5094050;28;19957;-71
2022/06/22 06:24:16;;;;;;;;;;;;;;;19.62;87.21;96019.06;5093536;28;19966;-71
2022/06/22 06:29:48;;;;;;;;;;;;;;;19.60;85.14;95999.94;5093444;28;20325;-71
2022/06/22 06:32:32;;;;;;;;;;;;;;;19.59;88.72;96002.88;5092628;28;20007;-72
2022/06/22 06:35:01;;;;;;;;;;;;;;;19.59;89.27;95993.06;5093756;28;19966;-72
2022/06/22 06:37:38;;;;;;;;;;;;;;;19.58;88.93;95986.16;5093357;28;19958;-72
2022/06/22 06:40:04;;;;;;;;;;;;;;;19.55;87.83;95992.06;5093553;28;19976;-72
2022/06/22 06:42:49;;;;;;;;;;;;;;;19.48;87.28;95978.31;5093394;28;19968;-72
2022/06/22 06:45:17;;;;;;;;;;;;;;;19.46;93.47;95983.13;5093482;28;19991;-72
2022/06/22 06:47:47;;;;;;;;;;;;;;;19.46;89.53;95983.13;5093413;28;19973;-72
2022/06/22 06:50:16;;;;;;;;;;;;;;;19.50;91.18;95978.81;5093246;28;19964;-72
2022/06/22 06:53:01;;;;;;;;;;;;;;;19.57;91.20;95983.78;5093008;28;19957;-72
2022/06/22 06:55:33;;;;;;;;;;;;;;;19.66;92.05;95988.16;5093260;28;19964;-72
2022/06/22 06:57:59;;;;;;;;;;;;;;;19.78;91.42;95989.63;5093305;28;19955;-72
2022/06/22 07:00:26;;;;;;;;;;;;;;;19.87;89.44;95993.25;5093403;28;19957;-72
2022/06/22 07:02:53;;;;;;;;;;;;;;;19.96;89.09;95996.81;5093113;28;19955;-72
2022/06/22 07:05:20;;;;;;;;;;;;;;;20.04;87.99;95998.84;5093191;28;19968;-72
2022/06/22 07:07:54;;;;;;;;;;;;;;;20.16;90.58;96009.06;5093042;28;20325;-72
2022/06/22 07:10:25;;;;;;;;;;;;;;;20.25;88.92;96001.19;5097058;28;19956;-72
2022/06/22 07:13:02;;;;;;;;;;;;;;;20.35;88.99;95994.91;5097044;28;20464;-72
2022/06/22 07:15:33;;;;;;;;;;;;;;;20.46;88.38;96005.09;5096618;28;20167;-72
2022/06/22 07:18:02;;;;;;;;;;;;;;;20.58;86.89;96003.88;5096469;28;20441;-72
2022/06/22 07:20:33;;;;;;;;;;;;;;;20.63;84.62;96007.25;5097200;28;19953;-72
2022/06/22 07:23:04;;;;;;;;;;;;;;;20.68;85.13;96015.16;5097156;28;19961;-72
2022/06/22 07:25:36;;;;;;;;;;;;;;;20.72;85.50;96022.56;5096997;28;20454;-72
2022/06/22 07:28:05;;;;;;;;;;;;;;;20.75;84.58;96019.31;5096806;28;19963;-72
2022/06/22 07:30:34;;;;;;;;;;;;;;;20.82;86.53;96022.38;5087726;28;19957;-72
2022/06/22 07:33:21;;;;;;;;;;;;;;;20.93;85.67;96017.66;5096065;28;19952;-72
2022/06/22 07:35:47;;;;;;;;;;;;;;;21.01;84.69;96028.44;5096589;28;19957;-72
2022/06/22 07:38:31;;;;;;;;;;;;;;;21.09;85.38;96021.63;5096551;28;19961;-72
2022/06/22 07:43:42;;;;;;;;;;;;;;;21.15;84.40;96025.00;5096901;28;19963;-72
2022/06/22 07:46:09;;;;;;;;;;;;;;;21.13;85.89;96013.84;5096631;28;20346;-72
2022/06/22 07:48:42;;;;;;;;;;;;;;;21.13;85.19;96009.28;5096378;28;19966;-72
2022/06/22 07:51:13;;;;;;;;;;;;;;;21.14;82.59;96016.19;5096421;28;20321;-72
2022/06/22 07:53:45;;;;;;;;;;;;;;;21.12;83.23;96020.25;5096094;28;19970;-72
2022/06/22 07:56:24;;;;;;;;;;;;;;;21.05;81.99;96016.09;5096575;28;19955;-72
2022/06/22 07:58:54;;;;;;;;;;;;;;;21.05;82.32;96013.41;5096063;28;19960;-72
2022/06/22 08:01:29;;;;;;;;;;;;;;;21.07;81.25;96016.59;5096188;28;20305;-73
2022/06/22 08:04:00;;;;;;;;;;;;;;;21.14;80.64;96012.75;5085410;28;19955;-73
2022/06/22 08:06:29;;;;;;;;;;;;;;;21.20;80.42;96009.66;5086407;28;19979;-73
2022/06/22 08:08:57;;;;;;;;;;;;;;;21.25;80.92;96019.44;5095695;28;19998;-74
2022/06/22 08:11:34;;;;;;;;;;;;;;;21.23;81.94;96025.09;5094570;28;19957;-74
2022/06/22 08:14:20;;;;;;;;;;;;;;;21.19;81.82;96032.09;5084125;28;19978;-74
2022/06/22 08:16:52;;;;;;;;;;;;;;;21.22;81.41;96030.72;5088229;28;19961;-74
2022/06/22 08:19:19;;;;;;;;;;;;;;;21.27;81.58;96035.94;5095551;28;19953;-74
2022/06/22 08:21:47;;;;;;;;;;;;;;;21.32;81.95;96029.75;5095707;28;20323;-74
2022/06/22 08:24:15;;;;;;;;;;;;;;;21.37;80.90;96032.28;5095506;28;19953;-74
2022/06/22 08:26:41;;;;;;;;;;;;;;;21.41;80.50;96036.72;5095791;28;19967;-74
2022/06/22 08:29:08;;;;;;;;;;;;;;;21.47;80.54;96045.47;5095413;28;19951;-74
2022/06/22 08:31:38;;;;;;;;;;;;;;;21.50;81.01;96042.19;5095792;28;19958;-72
2022/06/22 08:34:08;;;;;;;;;;;;;;;21.48;80.73;96041.69;5094324;28;20025;-72
2022/06/22 08:36:37;;;;;;;;;;;;;;;21.34;80.89;96030.22;5095563;28;19966;-72
2022/06/22 08:39:12;;;;;;;;;;;;;;;21.18;81.32;96041.19;5095180;28;19969;-73
2022/06/22 08:41:48;;;;;;;;;;;;;;;21.14;82.52;96058.06;5095390;28;19965;-72
2022/06/22 08:44:32;;;;;;;;;;;;;;;21.15;83.04;96060.44;5094720;28;19968;-72
2022/06/22 08:47:09;;;;;;;;;;;;;;;21.16;84.67;96075.34;5094095;28;19984;-73
2022/06/22 08:49:53;;;;;;;;;;;;;;;21.18;87.16;96078.50;5095852;28;19957;-72
2022/06/22 08:52:19;;;;;;;;;;;;;;;21.16;86.67;96086.00;5095444;28;20435;-72
2022/06/22 08:55:11;;;;;;;;;;;;;;;21.15;87.09;96083.66;5094931;28;19961;-72
2022/06/22 08:57:56;;;;;;;;;;;;;;;21.13;85.78;96077.84;5078761;28;19973;-72
2022/06/22 09:00:21;;;;;;;;;;;;;;;21.13;86.29;96080.50;5094923;28;19976;-72
2022/06/22 09:03:06;;;;;;;;;;;;;;;21.12;86.88;96078.91;5094995;28;19965;-72
2022/06/22 09:05:51;;;;;;;;;;;;;;;21.06;85.17;96073.66;5094843;28;19980;-72
2022/06/22 09:08:41;;;;;;;;;;;;;;;21.06;85.43;96064.88;5094855;28;19966;-72
2022/06/22 09:11:26;;;;;;;;;;;;;;;21.05;84.96;96058.75;5094998;28;19968;-72
2022/06/22 09:14:07;;;;;;;;;;;;;;;21.05;85.54;96064.06;5094523;28;19993;-72
2022/06/22 09:16:40;;;;;;;;;;;;;;;21.04;85.79;96059.03;5081306;28;19967;-72
2022/06/22 09:19:18;;;;;;;;;;;;;;;21.03;86.26;96068.91;5094980;28;19960;-73
2022/06/22 09:22:02;;;;;;;;;;;;;;;21.01;86.60;96071.06;5095020;28;19964;-72
2022/06/22 09:24:34;;;;;;;;;;;;;;;21.01;86.68;96067.63;5086013;28;20472;-73
2022/06/22 09:27:10;;;;;;;;;;;;;;;20.96;86.96;96063.19;5094520;28;19973;-72
2022/06/22 09:29:36;;;;;;;;;;;;;;;20.92;86.88;96045.41;5094486;28;19960;-72
2022/06/22 09:32:05;;;;;;;;;;;;;;;20.87;86.81;96039.09;5093634;28;20499;-73
2022/06/22 09:34:43;;;;;;;;;;;;;;;20.83;87.97;96059.41;5094485;28;19964;-72
2022/06/22 09:37:23;;;;;;;;;;;;;;;20.80;87.97;96070.63;5094270;28;19963;-72
2022/06/22 09:40:27;;;;;;;;;;;;;;;20.80;87.59;96072.53;5094379;28;19960;-72
2022/06/22 09:42:56;;;;;;;;;;;;;;;20.78;87.26;96072.81;5071802;28;19960;-72
2022/06/22 09:45:40;;;;;;;;;;;;;;;20.79;87.77;96074.41;5071462;28;19979;-73
2022/06/22 09:48:06;;;;;;;;;;;;;;;20.77;87.61;96076.56;5085130;28;20318;-73
2022/06/22 09:50:41;;;;;;;;;;;;;;;20.75;88.19;96084.06;5094195;28;19957;-72
2022/06/22 09:53:25;;;;;;;;;;;;;;;20.76;88.52;96100.84;5093960;28;19962;-72
2022/06/22 09:56:27;;;;;;;;;;;;;;;20.75;87.67;96092.06;5093806;28;19961;-73
2022/06/22 09:59:05;;;;;;;;;;;;;;;20.74;86.62;96092.34;5094093;28;19955;-74
2022/06/22 10:01:50;;;;;;;;;;;;;;;20.71;86.68;96095.59;5094083;28;20402;-73
2022/06/22 10:04:21;;;;;;;;;;;;;;;20.67;86.35;96106.03;5093758;28;19955;-73
2022/06/22 10:07:07;;;;;;;;;;;;;;;20.65;86.60;96121.53;5094065;28;19987;-73
2022/06/22 10:09:45;;;;;;;;;;;;;;;20.59;86.24;96115.47;5093651;28;19980;-73
2022/06/22 10:12:14;;;;;;;;;;;;;;;20.56;86.93;96121.38;5092696;28;19964;-74
2022/06/22 10:14:59;;;;;;;;;;;;;;;20.55;84.90;96119.78;5093406;28;20432;-73
2022/06/22 10:17:38;;;;;;;;;;;;;;;20.53;85.33;96121.94;5094008;28;19965;-73
2022/06/22 10:20:37;;;;;;;;;;;;;;;20.55;85.37;96122.44;5093721;28;19958;-73
2022/06/22 10:23:21;;;;;;;;;;;;;;;20.59;85.91;96123.47;5070459;28;19972;-73
2022/06/22 10:26:01;;;;;;;;;;;;;;;20.64;86.38;96120.75;5093832;28;19971;-73
2022/06/22 10:28:36;;;;;;;;;;;;;;;20.66;87.68;96131.09;5083088;28;20320;-73
2022/06/22 10:31:06;;;;;;;;;;;;;;;20.64;87.70;96130.59;5093583;28;19951;-74
2022/06/22 10:33:42;;;;;;;;;;;;;;;20.63;88.49;96127.13;5092830;28;19966;-73
2022/06/22 10:36:19;;;;;;;;;;;;;;;20.61;88.92;96121.31;5094198;28;19971;-74
2022/06/22 10:39:04;;;;;;;;;;;;;;;20.59;90.48;96128.00;5093435;28;20024;-73
2022/06/22 10:45:10;;;;;;;;;;;;;;;20.46;93.43;96124.19;5074725;28;19961;-73
2022/06/22 10:47:44;;;;;;;;;;;;;;;20.39;92.38;96129.88;5075190;28;19956;-73
2022/06/22 10:50:10;;;;;;;;;;;;;;;20.35;89.76;96133.38;5074525;28;19958;-73
2022/06/22 10:52:39;;;;;;;;;;;;;;;20.29;89.65;96140.66;5074858;28;20053;-73
2022/06/22 10:55:10;;;;;;;;;;;;;;;20.25;90.10;96145.75;5075097;28;20015;-73
2022/06/22 10:57:48;;;;;;;;;;;;;;;20.27;91.43;96134.84;5058382;28;20428;-73
2022/06/22 11:00:34;;;;;;;;;;;;;;;20.30;90.28;96142.22;5074731;28;19959;-74
2022/06/22 11:03:19;;;;;;;;;;;;;;;20.30;89.48;96138.78;5067508;28;19979;-73
2022/06/22 11:05:54;;;;;;;;;;;;;;;20.27;90.00;96137.50;5075106;28;19965;-73
2022/06/22 11:08:43;;;;;;;;;;;;;;;20.31;90.26;96132.41;5074731;28;19960;-73
2022/06/22 11:11:29;;;;;;;;;;;;;;;20.37;91.43;96149.84;5074816;28;19965;-73
2022/06/22 11:14:07;;;;;;;;;;;;;;;20.38;90.57;96146.13;5034146;28;20560;-74
2022/06/22 11:16:38;;;;;;;;;;;;;;;20.35;90.43;96144.03;5074471;28;20331;-73
2022/06/22 11:19:23;;;;;;;;;;;;;;;20.29;91.83;96156.63;5074382;28;19956;-74
2022/06/22 11:21:52;;;;;;;;;;;;;;;20.26;91.54;96162.53;5088844;28;20312;-73
2022/06/22 11:24:33;;;;;;;;;;;;;;;20.21;91.95;96166.06;5096643;28;20418;-72
2022/06/22 11:33:05;;;;;;;;;;;;;;;20.11;89.51;96160.84;5096625;28;20402;-72
2022/06/22 11:35:31;;;;;;;;;;;;;;;20.18;90.60;96155.16;5096521;28;20064;-72
2022/06/22 11:38:12;;;;;;;;;;;;;;;20.20;89.58;96153.00;5096636;28;20405;-72
2022/06/22 11:41:14;;;;;;;;;;;;;;;20.23;91.96;96145.25;5096486;28;20398;-72
2022/06/22 11:43:45;;;;;;;;;;;;;;;20.25;90.59;96143.09;5048229;28;19960;-72
2022/06/22 11:46:25;;;;;;;;;;;;;;;20.31;90.90;96146.50;5089249;28;19974;-72
2022/06/22 11:49:09;;;;;;;;;;;;;;;20.28;89.16;96134.56;5085799;28;19950;-72
2022/06/22 11:51:54;;;;;;;;;;;;;;;20.27;88.80;96134.84;5096176;28;19955;-72
2022/06/22 11:54:31;;;;;;;;;;;;;;;20.26;88.80;96134.03;5095655;28;19959;-72
2022/06/22 11:56:59;;;;;;;;;;;;;;;20.28;90.51;96128.41;5096074;28;19964;-73
2022/06/22 11:59:25;;;;;;;;;;;;;;;20.30;87.99;96128.13;5096292;28;20313;-72
2022/06/22 12:01:52;;;;;;;;;;;;;;;20.37;89.38;96124.03;5096197;28;19965;-72
2022/06/22 12:04:36;;;;;;;;;;;;;;;20.42;87.98;96121.28;5095996;28;19974;-72
2022/06/22 12:07:15;;;;;;;;;;;;;;;20.45;87.20;96119.91;5094846;28;19971;-72
2022/06/22 12:10:07;;;;;;;;;;;;;;;20.47;86.90;96107.91;5085854;28;19958;-72
2022/06/22 12:12:39;;;;;;;;;;;;;;;20.46;86.26;96108.19;5085343;28;19960;-72
2022/06/22 12:15:24;;;;;;;;;;;;;;;20.42;86.60;96104.53;5095531;28;20000;-73
2022/06/22 12:17:50;;;;;;;;;;;;;;;20.45;86.23;96103.94;5096055;28;19967;-73
2022/06/22 12:20:23;;;;;;;;;;;;;;;20.43;86.74;96101.59;5095644;28;20003;-73
2022/06/22 12:22:55;;;;;;;;;;;;;;;20.49;86.44;96096.94;5095925;28;19956;-73
2022/06/22 12:25:21;;;;;;;;;;;;;;;20.52;85.58;96090.28;5095640;28;19955;-73
2022/06/22 12:27:55;;;;;;;;;;;;;;;20.54;86.26;96091.56;5095452;28;19953;-73
2022/06/22 12:30:39;;;;;;;;;;;;;;;20.61;86.34;96083.22;5094927;28;19959;-73
2022/06/22 12:33:08;;;;;;;;;;;;;;;20.76;86.33;96085.63;5084364;28;19952;-73
2022/06/22 12:35:40;;;;;;;;;;;;;;;20.92;86.61;96080.84;5095460;28;19976;-73
2022/06/22 12:38:15;;;;;;;;;;;;;;;21.04;85.69;96083.03;5095610;28;19959;-73
2022/06/22 12:40:49;;;;;;;;;;;;;;;21.17;85.56;96084.94;5095594;28;20498;-73
2022/06/22 12:43:25;;;;;;;;;;;;;;;21.26;85.07;96083.16;5095392;28;19970;-73
2022/06/22 12:46:10;;;;;;;;;;;;;;;21.33;85.57;96082.75;5095516;28;19960;-73
2022/06/22 12:48:35;;;;;;;;;;;;;;;21.26;84.71;96067.16;5079609;28;19953;-73
2022/06/22 12:51:15;;;;;;;;;;;;;;;21.20;81.71;96064.88;5095263;28;19963;-73
2022/06/22 12:53:54;;;;;;;;;;;;;;;21.07;83.27;96058.47;5095046;28;19947;-73
2022/06/22 12:56:41;;;;;;;;;;;;;;;20.91;84.13;96063.25;5095046;28;19957;-73
2022/06/22 12:59:10;;;;;;;;;;;;;;;20.79;84.55;96066.41;5083508;28;19961;-74
2022/06/22 13:01:36;;;;;;;;;;;;;;;20.78;85.22;96064.81;5094992;28;20324;-73
2022/06/22 13:04:23;;;;;;;;;;;;;;;20.84;85.28;96060.97;5094696;28;19970;-73
2022/06/22 13:06:51;;;;;;;;;;;;;;;20.89;84.39;96062.75;5093889;28;19984;-74
2022/06/22 13:09:17;;;;;;;;;;;;;;;20.94;85.38;96067.25;5094967;28;20352;-73
2022/06/22 13:11:44;;;;;;;;;;;;;;;21.02;86.10;96061.19;5094933;28;20012;-73
2022/06/22 13:14:19;;;;;;;;;;;;;;;21.12;85.89;96052.25;5094275;28;19993;-73
2022/06/22 13:16:51;;;;;;;;;;;;;;;21.14;83.87;96064.19;5093902;28;19991;-73
2022/06/22 13:19:24;;;;;;;;;;;;;;;21.14;84.38;96066.84;5094501;28;19956;-73
2022/06/22 13:21:54;;;;;;;;;;;;;;;21.16;84.92;96063.91;5094410;28;19966;-74
2022/06/22 13:24:27;;;;;;;;;;;;;;;21.19;83.44;96064.09;5095008;28;20328;-74
2022/06/22 13:27:12;;;;;;;;;;;;;;;21.16;83.86;96074.56;5094470;28;19975;-73
2022/06/22 13:29:42;;;;;;;;;;;;;;;21.10;80.86;96052.53;5094697;28;20442;-74
2022/06/22 13:32:10;;;;;;;;;;;;;;;21.10;81.76;96047.19;5094429;28;19957;-74
2022/06/22 13:34:41;;;;;;;;;;;;;;;21.13;82.87;96049.28;5093101;28;19966;-73
2022/06/22 13:37:08;;;;;;;;;;;;;;;21.16;82.97;96038.00;5094274;28;20333;-74
2022/06/22 13:39:49;;;;;;;;;;;;;;;21.16;83.84;96032.69;5094693;28;19976;-74